Time;durP1;ratioP1;P1;durP2;ratioP2;P2;SDS_P1;SDS_P2;PMS_P1;PMS_P2;Temp;Humidity;BMP_temperature;BMP_pressure;BME280_temperature;BME280_humidity;BME280_pressure;Samples;Min_cycle;Max_cycle;Signal;HPM_P1;HPM_P2
2023/03/21 00:01:04;;;;;;;2.65;0.70;;;18.30;71.40;;;;;;5051306;28;20036;-72
2023/03/21 00:03:31;;;;;;;1.90;0.43;;;18.30;71.50;;;;;;5053120;28;20053;-72
2023/03/21 00:05:56;;;;;;;2.47;0.40;;;18.20;71.60;;;;;;5052993;28;20033;-72
2023/03/21 00:08:24;;;;;;;1.23;0.50;;;18.30;71.50;;;;;;5052921;28;20416;-72
2023/03/21 00:11:03;;;;;;;1.15;0.57;;;18.20;71.60;;;;;;5052901;28;20032;-72
2023/03/21 00:13:31;;;;;;;3.03;0.60;;;18.30;71.70;;;;;;5052752;28;20020;-72
2023/03/21 00:16:06;;;;;;;0.73;0.40;;;18.20;71.60;;;;;;5050828;28;20021;-72
2023/03/21 00:18:35;;;;;;;1.15;0.73;;;18.30;71.70;;;;;;5050980;28;20552;-72
2023/03/21 00:21:02;;;;;;;1.35;0.40;;;18.30;71.70;;;;;;5052131;28;20032;-71
2023/03/21 00:23:28;;;;;;;2.45;0.55;;;18.20;71.70;;;;;;5052804;28;20032;-71
2023/03/21 00:25:54;;;;;;;1.17;0.77;;;18.20;71.80;;;;;;5051998;28;20060;-71
2023/03/21 00:28:20;;;;;;;0.95;0.65;;;18.20;71.80;;;;;;5035923;28;20049;-71
2023/03/21 00:30:45;;;;;;;1.20;0.25;;;18.20;71.80;;;;;;5052277;28;20091;-71
2023/03/21 00:33:12;;;;;;;0.50;0.40;;;18.20;71.90;;;;;;5052384;28;20029;-71
2023/03/21 00:35:38;;;;;;;0.65;0.43;;;18.20;71.90;;;;;;5053313;28;20090;-71
2023/03/21 00:38:04;;;;;;;2.22;0.63;;;18.20;71.90;;;;;;5053633;28;20021;-71
2023/03/21 00:40:30;;;;;;;2.15;0.68;;;18.20;71.90;;;;;;5053449;28;20379;-72
2023/03/21 00:42:55;;;;;;;0.40;0.30;;;18.20;71.90;;;;;;5053587;28;20025;-72
2023/03/21 00:45:21;;;;;;;1.15;0.30;;;18.20;72.00;;;;;;5053502;28;20029;-72
2023/03/21 00:47:47;;;;;;;0.77;0.30;;;18.10;72.00;;;;;;5053188;28;20024;-71
2023/03/21 00:50:12;;;;;;;1.00;0.40;;;18.10;72.00;;;;;;5052114;28;20079;-72
2023/03/21 00:52:38;;;;;;;0.35;0.22;;;18.20;72.10;;;;;;5051890;28;20049;-72
2023/03/21 00:55:05;;;;;;;1.35;0.40;;;18.10;72.00;;;;;;5052934;28;20029;-72
2023/03/21 00:57:30;;;;;;;1.60;0.65;;;18.10;72.00;;;;;;5052878;28;20017;-71
2023/03/21 00:59:57;;;;;;;0.63;0.20;;;18.10;72.00;;;;;;5051864;28;20029;-71
2023/03/21 01:02:26;;;;;;;1.75;0.30;;;18.10;72.10;;;;;;5053069;28;20100;-71
2023/03/21 01:04:54;;;;;;;0.77;0.40;;;18.10;72.10;;;;;;5051834;28;20025;-71
2023/03/21 01:07:20;;;;;;;2.00;0.40;;;18.10;73.10;;;;;;5051876;28;20028;-71
2023/03/21 01:09:46;;;;;;;0.40;0.30;;;18.10;72.10;;;;;;5052556;28;20025;-71
2023/03/21 01:12:11;;;;;;;1.27;0.60;;;18.10;72.10;;;;;;5051897;28;20035;-71
2023/03/21 01:14:37;;;;;;;1.13;0.40;;;18.10;72.10;;;;;;5051691;28;20026;-71
2023/03/21 01:17:03;;;;;;;1.48;0.50;;;18.10;72.10;;;;;;5052824;28;20433;-72
2023/03/21 01:19:29;;;;;;;1.05;0.30;;;18.10;72.30;;;;;;5052785;28;20025;-72
2023/03/21 01:21:55;;;;;;;0.90;0.40;;;18.10;72.40;;;;;;5052868;28;20413;-72
2023/03/21 01:24:21;;;;;;;0.65;0.40;;;18.10;72.50;;;;;;5051452;28;20108;-72
2023/03/21 01:26:46;;;;;;;1.67;0.60;;;18.00;72.50;;;;;;5051451;28;20116;-72
2023/03/21 01:29:12;;;;;;;2.70;0.40;;;18.10;72.50;;;;;;5051670;28;20029;-72
2023/03/21 01:31:38;;;;;;;1.15;0.40;;;18.10;72.70;;;;;;5052644;28;20033;-72
2023/03/21 01:34:03;;;;;;;1.35;0.40;;;18.00;72.70;;;;;;5034776;28;20021;-72
2023/03/21 01:36:29;;;;;;;0.40;0.28;;;18.00;72.80;;;;;;5051669;28;20083;-72
2023/03/21 01:38:55;;;;;;;0.40;0.40;;;18.00;72.80;;;;;;5051324;28;20021;-72
2023/03/21 01:41:28;;;;;;;1.33;0.70;;;18.00;72.80;;;;;;5051573;28;20025;-72
2023/03/21 01:43:53;;;;;;;3.25;0.40;;;18.00;73.00;;;;;;5051253;28;20083;-72
2023/03/21 01:46:25;;;;;;;0.40;0.22;;;18.00;72.90;;;;;;5052694;28;20017;-72
2023/03/21 01:49:00;;;;;;;1.13;0.40;;;18.00;73.10;;;;;;5052702;28;20025;-72
2023/03/21 01:51:26;;;;;;;0.35;0.30;;;18.00;73.00;;;;;;5051069;28;20288;-72
2023/03/21 01:53:52;;;;;;;0.40;0.30;;;18.00;73.00;;;;;;5051151;28;20382;-72
2023/03/21 01:56:30;;;;;;;0.40;0.30;;;18.00;73.20;;;;;;5051422;28;20096;-72
2023/03/21 01:59:02;;;;;;;0.50;0.47;;;18.00;73.20;;;;;;5051327;28;20096;-72
2023/03/21 02:01:28;;;;;;;0.63;0.38;;;18.00;73.20;;;;;;5051525;28;20029;-72
2023/03/21 02:03:54;;;;;;;0.65;0.30;;;18.00;73.30;;;;;;5051329;28;20064;-72
2023/03/21 02:06:24;;;;;;;0.95;0.32;;;18.00;73.50;;;;;;5051223;28;20048;-72
2023/03/21 02:08:50;;;;;;;0.93;0.32;;;18.00;73.50;;;;;;5064280;28;20031;-72
2023/03/21 02:11:16;;;;;;;0.90;0.47;;;18.00;73.50;;;;;;5075153;28;20032;-72
2023/03/21 02:13:42;;;;;;;0.73;0.30;;;18.00;73.40;;;;;;5058449;28;20032;-72
2023/03/21 02:16:53;;;;;;;1.17;0.30;;;18.00;73.40;;;;;;5075066;28;20021;-72
2023/03/21 02:19:55;;;;;;;0.65;0.40;;;18.00;73.30;;;;;;5034111;28;20068;-72
2023/03/21 02:22:33;;;;;;;0.20;0.20;;;18.00;73.50;;;;;;5033757;28;20034;-72
2023/03/21 02:25:10;;;;;;;0.82;0.57;;;18.00;73.60;;;;;;5033930;28;20401;-72
2023/03/21 02:27:43;;;;;;;1.73;0.43;;;17.90;73.60;;;;;;5017483;28;20030;-72
2023/03/21 02:30:09;;;;;;;0.45;0.30;;;17.90;73.50;;;;;;4998136;28;20034;-72
2023/03/21 02:33:03;;;;;;;0.60;0.40;;;17.90;73.60;;;;;;5014242;28;20111;-72
2023/03/21 02:35:31;;;;;;;1.40;0.30;;;17.90;73.70;;;;;;4994480;28;20037;-72
2023/03/21 02:38:10;;;;;;;0.88;0.32;;;17.90;73.80;;;;;;4994132;28;20041;-72
2023/03/21 02:40:42;;;;;;;0.60;0.47;;;17.90;73.80;;;;;;5010763;28;20402;-72
2023/03/21 02:43:07;;;;;;;0.57;0.40;;;17.90;73.90;;;;;;4994088;28;20030;-72
2023/03/21 02:45:40;;;;;;;1.15;0.40;;;17.90;73.80;;;;;;4994274;28;20378;-72
2023/03/21 02:48:09;;;;;;;0.60;0.35;;;17.90;73.90;;;;;;4994061;28;20521;-72
2023/03/21 02:50:40;;;;;;;0.20;0.20;;;17.90;73.80;;;;;;4994044;28;20034;-72
2023/03/21 02:53:06;;;;;;;0.30;0.30;;;17.90;73.80;;;;;;4993748;28;20418;-72
2023/03/21 02:55:32;;;;;;;0.57;0.40;;;17.90;73.80;;;;;;5010427;28;20045;-72
2023/03/21 02:57:57;;;;;;;0.82;0.28;;;17.90;74.10;;;;;;5017867;28;20484;-71
2023/03/21 03:00:26;;;;;;;0.57;0.38;;;17.90;74.00;;;;;;5034231;28;20566;-71
2023/03/21 03:02:52;;;;;;;0.70;0.40;;;17.90;74.00;;;;;;5018123;28;20029;-71
2023/03/21 03:05:22;;;;;;;1.85;0.30;;;17.90;74.00;;;;;;5034384;28;20036;-71
2023/03/21 03:08:05;;;;;;;1.98;0.38;;;17.90;74.10;;;;;;5035198;28;20091;-71
2023/03/21 03:10:55;;;;;;;1.48;0.73;;;17.90;74.20;;;;;;5034100;28;20025;-72
2023/03/21 03:13:34;;;;;;;1.40;0.30;;;17.90;74.10;;;;;;5034657;28;20046;-72
2023/03/21 03:15:59;;;;;;;3.20;0.40;;;17.90;74.30;;;;;;5033952;28;20018;-71
2023/03/21 03:18:39;;;;;;;0.30;0.10;;;17.90;74.50;;;;;;5035283;28;20044;-71
2023/03/21 03:21:26;;;;;;;1.42;0.38;;;17.80;74.40;;;;;;5033225;28;20044;-72
2023/03/21 03:23:54;;;;;;;0.30;0.20;;;17.90;74.50;;;;;;5035128;28;20112;-72
2023/03/21 03:26:33;;;;;;;0.47;0.30;;;17.80;74.40;;;;;;5023800;28;20361;-71
2023/03/21 03:29:05;;;;;;;0.52;0.40;;;17.80;74.40;;;;;;5053840;28;20029;-71
2023/03/21 03:31:33;;;;;;;0.37;0.37;;;17.80;74.40;;;;;;5037331;28;20028;-72
2023/03/21 03:34:01;;;;;;;0.43;0.30;;;17.80;74.40;;;;;;5036888;28;20269;-72
2023/03/21 03:36:33;;;;;;;0.57;0.20;;;17.80;74.40;;;;;;5053447;28;20057;-72
2023/03/21 03:38:58;;;;;;;0.75;0.45;;;17.80;74.40;;;;;;5053342;28;20021;-72
2023/03/21 03:41:25;;;;;;;0.73;0.30;;;17.80;74.40;;;;;;5053341;28;20043;-72
2023/03/21 03:43:56;;;;;;;0.55;0.30;;;17.80;74.40;;;;;;5053151;28;20021;-72
2023/03/21 03:46:28;;;;;;;0.40;0.30;;;17.80;74.40;;;;;;5053237;28;20523;-71
2023/03/21 03:48:55;;;;;;;1.45;0.32;;;17.80;74.40;;;;;;5054341;28;20025;-71
2023/03/21 03:51:35;;;;;;;0.93;0.30;;;17.80;74.40;;;;;;5052847;28;20053;-71
2023/03/21 03:54:06;;;;;;;0.30;0.30;;;17.80;74.40;;;;;;5053035;28;20025;-71
2023/03/21 03:56:32;;;;;;;0.45;0.30;;;17.80;74.40;;;;;;5053124;28;20032;-71
2023/03/21 03:58:57;;;;;;;0.50;0.30;;;17.80;74.50;;;;;;5052962;28;20021;-71
2023/03/21 04:01:23;;;;;;;1.83;0.20;;;17.80;74.40;;;;;;5053033;28;20037;-71
2023/03/21 04:03:49;;;;;;;0.38;0.30;;;17.80;74.40;;;;;;5053882;28;20036;-71
2023/03/21 04:06:15;;;;;;;1.13;0.32;;;17.80;74.40;;;;;;5068615;28;20017;-71
2023/03/21 04:08:41;;;;;;;0.40;0.40;;;17.80;74.40;;;;;;5054458;28;20527;-71
2023/03/21 04:11:07;;;;;;;0.55;0.38;;;17.80;74.40;;;;;;5072428;28;20021;-71
2023/03/21 04:13:32;;;;;;;0.63;0.20;;;17.80;74.40;;;;;;5073848;28;20116;-71
2023/03/21 04:15:59;;;;;;;0.55;0.28;;;17.80;74.50;;;;;;5073902;28;20118;-71
2023/03/21 04:18:25;;;;;;;0.50;0.30;;;17.80;74.40;;;;;;5072517;28;20019;-71
2023/03/21 04:20:51;;;;;;;0.50;0.28;;;17.80;74.40;;;;;;5056084;28;20024;-71
2023/03/21 04:23:18;;;;;;;0.60;0.30;;;17.80;74.40;;;;;;5071161;28;20116;-71
2023/03/21 04:25:44;;;;;;;1.15;0.40;;;17.80;74.50;;;;;;5069140;28;20029;-71
2023/03/21 04:28:10;;;;;;;1.33;0.40;;;17.80;74.50;;;;;;5052519;28;20032;-71
2023/03/21 04:30:35;;;;;;;1.33;0.30;;;17.80;74.60;;;;;;5052347;28;20087;-71
2023/03/21 04:33:01;;;;;;;0.30;0.30;;;17.80;74.50;;;;;;5052597;28;20480;-71
2023/03/21 04:35:27;;;;;;;0.17;0.17;;;17.80;74.50;;;;;;5052357;28;20025;-71
2023/03/21 04:37:53;;;;;;;0.88;0.30;;;17.80;74.50;;;;;;5052093;28;20070;-71
2023/03/21 04:40:19;;;;;;;0.35;0.30;;;17.70;74.50;;;;;;5053528;28;20028;-71
2023/03/21 04:42:45;;;;;;;0.52;0.30;;;17.70;74.50;;;;;;5052085;28;20029;-71
2023/03/21 04:45:11;;;;;;;0.35;0.32;;;17.70;74.50;;;;;;5052094;28;20025;-71
2023/03/21 04:47:37;;;;;;;1.05;0.30;;;17.70;74.50;;;;;;5051926;28;20032;-71
2023/03/21 04:50:03;;;;;;;1.35;0.30;;;17.70;74.50;;;;;;5053220;28;20024;-71
2023/03/21 04:52:28;;;;;;;0.43;0.20;;;17.70;74.50;;;;;;5051818;28;20052;-71
2023/03/21 04:54:55;;;;;;;0.52;0.25;;;17.70;74.50;;;;;;5052231;28;20029;-71
2023/03/21 04:57:20;;;;;;;1.15;0.30;;;17.70;74.40;;;;;;5051706;28;20028;-71
2023/03/21 04:59:46;;;;;;;7.32;0.50;;;17.70;74.50;;;;;;5051098;28;20029;-71
2023/03/21 05:02:12;;;;;;;0.30;0.25;;;17.70;74.50;;;;;;5052838;28;20070;-71
2023/03/21 05:04:38;;;;;;;0.70;0.30;;;17.70;74.50;;;;;;5051844;28;20033;-71
2023/03/21 05:07:03;;;;;;;1.27;0.30;;;17.70;74.60;;;;;;5051621;28;20025;-71
2023/03/21 05:09:29;;;;;;;0.30;0.20;;;17.70;74.70;;;;;;5051768;28;20029;-72
2023/03/21 05:11:55;;;;;;;0.20;0.20;;;17.70;74.70;;;;;;5052878;28;20020;-71
2023/03/21 05:14:22;;;;;;;1.40;0.30;;;17.70;74.80;;;;;;5052717;28;20086;-72
2023/03/21 05:16:51;;;;;;;1.73;0.28;;;17.70;74.80;;;;;;5052808;28;20435;-72
2023/03/21 05:19:19;;;;;;;3.13;0.85;;;17.70;75.80;;;;;;5052847;28;20049;-72
2023/03/21 05:21:45;;;;;;;2.40;0.40;;;17.70;74.80;;;;;;5051598;28;20032;-72
2023/03/21 05:24:15;;;;;;;1.10;0.25;;;17.70;74.80;;;;;;5051468;28;20017;-72
2023/03/21 05:26:42;;;;;;;1.23;0.40;;;17.70;74.70;;;;;;5051498;28;20032;-72
2023/03/21 05:29:08;;;;;;;1.23;0.20;;;17.70;74.80;;;;;;5068184;28;20049;-71
2023/03/21 05:31:33;;;;;;;0.32;0.20;;;17.70;74.70;;;;;;5068104;28;20485;-71
2023/03/21 05:33:59;;;;;;;2.65;0.40;;;17.70;74.70;;;;;;5051438;28;20047;-72
2023/03/21 05:36:25;;;;;;;0.63;0.22;;;17.70;74.70;;;;;;5068224;28;20048;-71
2023/03/21 05:38:50;;;;;;;0.43;0.30;;;17.70;74.70;;;;;;5072888;28;20024;-71
2023/03/21 05:41:16;;;;;;;1.05;0.30;;;17.70;74.70;;;;;;5072798;28;20028;-71
2023/03/21 05:43:42;;;;;;;0.52;0.30;;;17.70;74.70;;;;;;5075263;28;20028;-71
2023/03/21 05:46:08;;;;;;;0.45;0.30;;;17.70;74.70;;;;;;5058672;28;20024;-71
2023/03/21 05:48:34;;;;;;;0.73;0.30;;;17.70;74.70;;;;;;5058929;28;20033;-71
2023/03/21 05:51:00;;;;;;;0.98;0.40;;;17.70;74.70;;;;;;5058792;28;20041;-71
2023/03/21 05:53:26;;;;;;;0.60;0.30;;;17.70;74.70;;;;;;5059027;28;20024;-71
2023/03/21 05:55:52;;;;;;;2.08;0.52;;;17.70;74.70;;;;;;5058845;28;20035;-71
2023/03/21 05:58:17;;;;;;;2.92;0.55;;;17.70;74.70;;;;;;5075478;28;20097;-71
2023/03/21 06:00:43;;;;;;;0.30;0.30;;;17.80;74.70;;;;;;5058438;28;20388;-71
2023/03/21 06:03:09;;;;;;;1.33;0.40;;;17.70;74.60;;;;;;5076439;28;20024;-71
2023/03/21 06:05:34;;;;;;;1.35;0.20;;;17.70;74.70;;;;;;5075464;28;20036;-71
2023/03/21 06:08:00;;;;;;;0.85;0.30;;;17.70;74.60;;;;;;5076593;28;20024;-71
2023/03/21 06:10:25;;;;;;;2.58;0.50;;;17.70;74.70;;;;;;5075152;28;20485;-71
2023/03/21 06:12:51;;;;;;;0.35;0.35;;;17.70;74.70;;;;;;5058405;28;20020;-71
2023/03/21 06:15:17;;;;;;;0.77;0.30;;;17.70;74.70;;;;;;5074735;28;20027;-71
2023/03/21 06:17:42;;;;;;;1.40;0.30;;;17.70;74.70;;;;;;5075064;28;20070;-71
2023/03/21 06:20:11;;;;;;;1.00;0.30;;;17.70;74.70;;;;;;5076333;28;20029;-71
2023/03/21 06:22:36;;;;;;;1.10;0.20;;;17.70;74.80;;;;;;5076309;28;20021;-71
2023/03/21 06:25:03;;;;;;;1.55;0.30;;;17.70;75.80;;;;;;5074985;28;20021;-71
2023/03/21 06:27:29;;;;;;;0.73;0.20;;;17.70;74.70;;;;;;5058890;28;20111;-71
2023/03/21 06:29:56;;;;;;;1.10;0.30;;;17.70;74.80;;;;;;5054818;28;20064;-71
2023/03/21 06:32:22;;;;;;;1.98;0.20;;;17.70;74.70;;;;;;5054807;28;20021;-71
2023/03/21 06:34:48;;;;;;;1.02;0.40;;;17.70;74.80;;;;;;5057634;28;20791;-71
2023/03/21 06:37:13;;;;;;;0.30;0.20;;;17.70;74.90;;;;;;5086216;28;20032;-71
2023/03/21 06:39:39;;;;;;;0.77;0.25;;;17.70;75.00;;;;;;5052839;28;20032;-71
2023/03/21 06:42:05;;;;;;;1.27;0.22;;;17.60;75.00;;;;;;5054002;28;20553;-71
2023/03/21 06:44:31;;;;;;;0.82;0.22;;;17.70;75.10;;;;;;5052439;28;20558;-71
2023/03/21 06:46:56;;;;;;;1.67;0.43;;;17.70;75.00;;;;;;5052735;28;20544;-71
2023/03/21 06:49:22;;;;;;;1.40;0.20;;;17.60;75.00;;;;;;5052563;28;20029;-71
2023/03/21 06:51:48;;;;;;;0.20;0.20;;;17.70;75.00;;;;;;5069060;28;20402;-71
2023/03/21 06:54:14;;;;;;;0.28;0.20;;;17.60;75.00;;;;;;5053194;28;20025;-71
2023/03/21 06:56:40;;;;;;;0.63;0.30;;;17.60;74.90;;;;;;5053890;28;20024;-71
2023/03/21 06:59:07;;;;;;;0.17;0.15;;;17.70;75.10;;;;;;5052163;28;20021;-71
2023/03/21 07:01:33;;;;;;;0.57;0.30;;;17.70;75.10;;;;;;5052522;28;20032;-71
2023/03/21 07:03:59;;;;;;;2.00;0.30;;;17.60;75.20;;;;;;5053679;28;20025;-71
2023/03/21 07:06:25;;;;;;;0.70;0.25;;;17.60;75.10;;;;;;5052237;28;20028;-71
2023/03/21 07:08:51;;;;;;;1.00;0.35;;;17.60;75.10;;;;;;5051638;28;20104;-71
2023/03/21 07:11:17;;;;;;;0.73;0.28;;;17.60;75.00;;;;;;5050537;28;20067;-71
2023/03/21 07:13:43;;;;;;;0.95;0.50;;;17.60;74.80;;;;;;5049939;28;20033;-70
2023/03/21 07:16:09;;;;;;;0.85;0.20;;;17.60;74.40;;;;;;5052855;28;20145;-70
2023/03/21 07:18:35;;;;;;;0.55;0.30;;;17.70;74.30;;;;;;5051370;28;20021;-71
2023/03/21 07:21:01;;;;;;;1.27;0.25;;;17.70;74.20;;;;;;5052750;28;20424;-70
2023/03/21 07:23:27;;;;;;;3.22;0.50;;;17.70;74.00;;;;;;5038864;28;20024;-71
2023/03/21 07:25:53;;;;;;;0.80;0.30;;;17.70;75.00;;;;;;5053606;28;20081;-71
2023/03/21 07:28:18;;;;;;;1.00;0.52;;;17.70;73.90;;;;;;5062833;28;20092;-71
2023/03/21 07:30:44;;;;;;;0.43;0.25;;;17.70;73.80;;;;;;5037132;28;20017;-71
2023/03/21 07:33:10;;;;;;;0.80;0.30;;;17.70;73.70;;;;;;5057749;28;20024;-71
2023/03/21 07:35:36;;;;;;;0.63;0.25;;;17.70;73.70;;;;;;5052468;28;20496;-71
2023/03/21 07:38:06;;;;;;;0.32;0.22;;;17.70;73.70;;;;;;5056925;28;20025;-71
2023/03/21 07:40:31;;;;;;;1.33;0.40;;;17.70;73.60;;;;;;5053371;28;20023;-71
2023/03/21 07:42:57;;;;;;;0.52;0.35;;;17.70;73.50;;;;;;5056608;28;20401;-70
2023/03/21 07:45:24;;;;;;;4.10;0.70;;;17.70;73.50;;;;;;5053989;28;20036;-69
2023/03/21 07:47:50;;;;;;;8.10;0.90;;;17.70;73.60;;;;;;5053106;28;20032;-70
2023/03/21 07:50:16;;;;;;;6.53;1.30;;;17.70;73.90;;;;;;5051795;28;20021;-70
2023/03/21 07:52:41;;;;;;;5.90;0.95;;;17.70;74.40;;;;;;5052001;28;20068;-70
2023/03/21 07:55:08;;;;;;;3.47;0.90;;;17.70;74.50;;;;;;5051115;28;20024;-71
2023/03/21 07:57:33;;;;;;;2.55;0.88;;;17.80;74.60;;;;;;5051364;28;20032;-70
2023/03/21 07:59:59;;;;;;;2.42;0.77;;;17.80;74.80;;;;;;5052820;28;20021;-71
2023/03/21 08:02:25;;;;;;;2.85;1.13;;;17.80;74.80;;;;;;5052514;28;20032;-71
2023/03/21 08:04:51;;;;;;;3.90;0.90;;;17.80;74.70;;;;;;5049217;28;20092;-71
2023/03/21 08:07:16;;;;;;;1.25;0.50;;;17.80;74.60;;;;;;5036682;28;20374;-70
2023/03/21 08:09:43;;;;;;;2.50;0.50;;;17.80;74.50;;;;;;5082760;28;20083;-70
2023/03/21 08:12:08;;;;;;;2.30;1.20;;;17.80;74.40;;;;;;5050435;28;20029;-70
2023/03/21 08:14:35;;;;;;;3.25;0.80;;;17.80;74.40;;;;;;5065436;28;20037;-71
2023/03/21 08:17:01;;;;;;;1.17;0.52;;;17.80;74.40;;;;;;5065313;28;20048;-71
2023/03/21 08:19:27;;;;;;;2.65;0.70;;;17.80;74.30;;;;;;5065629;28;20017;-71
2023/03/21 08:21:53;;;;;;;5.07;1.17;;;17.80;74.20;;;;;;5077027;28;20021;-70
2023/03/21 08:24:18;;;;;;;1.08;0.60;;;17.80;74.20;;;;;;5053127;28;20028;-71
2023/03/21 08:26:45;;;;;;;3.08;0.93;;;17.80;74.30;;;;;;5051842;28;20388;-71
2023/03/21 08:29:13;;;;;;;2.50;0.85;;;17.80;74.30;;;;;;5068654;28;20020;-71
2023/03/21 08:31:40;;;;;;;2.00;0.60;;;17.80;74.20;;;;;;5053051;28;20029;-71
2023/03/21 08:34:06;;;;;;;3.17;0.82;;;17.80;74.20;;;;;;5051806;28;20017;-71
2023/03/21 08:36:32;;;;;;;1.45;0.70;;;17.80;74.20;;;;;;5052805;28;20020;-71
2023/03/21 08:39:04;;;;;;;4.15;1.08;;;17.80;74.20;;;;;;5053344;28;20044;-70
2023/03/21 08:41:31;;;;;;;1.63;0.60;;;17.80;74.20;;;;;;5052959;28;20021;-70
2023/03/21 08:43:56;;;;;;;1.38;0.70;;;17.80;74.20;;;;;;5051612;28;20036;-70
2023/03/21 08:46:22;;;;;;;2.10;0.80;;;17.80;74.20;;;;;;5052817;28;20032;-70
2023/03/21 08:48:48;;;;;;;2.33;0.52;;;17.80;74.10;;;;;;5052838;28;20402;-70
2023/03/21 08:51:13;;;;;;;2.67;0.75;;;17.80;74.10;;;;;;5051415;28;20523;-70
2023/03/21 08:53:40;;;;;;;1.58;0.80;;;17.80;74.10;;;;;;5052575;28;20025;-70
2023/03/21 08:56:06;;;;;;;1.13;0.77;;;17.80;74.10;;;;;;5051622;28;20024;-70
2023/03/21 08:58:32;;;;;;;1.60;0.70;;;17.80;74.10;;;;;;5052533;28;20029;-70
2023/03/21 09:00:57;;;;;;;3.17;1.00;;;17.80;74.20;;;;;;5051668;28;20083;-71
2023/03/21 09:03:23;;;;;;;1.45;0.68;;;17.80;74.00;;;;;;5051344;28;20037;-70
2023/03/21 09:05:52;;;;;;;1.13;0.60;;;17.80;74.00;;;;;;5051146;28;20082;-70
2023/03/21 09:08:22;;;;;;;2.13;0.80;;;17.80;74.00;;;;;;5067400;28;20040;-70
2023/03/21 09:10:48;;;;;;;3.55;0.80;;;17.80;74.00;;;;;;5067332;28;20047;-70
2023/03/21 09:13:14;;;;;;;1.55;0.60;;;17.80;74.00;;;;;;5071289;28;20108;-70
2023/03/21 09:15:40;;;;;;;2.17;0.63;;;17.80;74.00;;;;;;5047730;28;20101;-70
2023/03/21 09:18:21;;;;;;;2.17;0.90;;;17.80;73.90;;;;;;5047597;28;20034;-70
2023/03/21 09:20:47;;;;;;;1.83;0.80;;;17.80;74.00;;;;;;5060537;28;20022;-70
2023/03/21 09:23:13;;;;;;;2.63;0.93;;;17.90;74.00;;;;;;5064219;28;20048;-70
2023/03/21 09:25:40;;;;;;;1.35;0.63;;;17.80;74.00;;;;;;5047500;28;20021;-70
2023/03/21 09:28:06;;;;;;;0.88;0.70;;;17.80;74.00;;;;;;5047830;28;20120;-70
2023/03/21 09:30:32;;;;;;;1.58;0.70;;;17.90;74.00;;;;;;5047349;28;20064;-70
2023/03/21 09:32:59;;;;;;;1.00;0.57;;;17.80;74.00;;;;;;5047698;28;20032;-70
2023/03/21 09:35:25;;;;;;;1.20;0.57;;;17.80;73.90;;;;;;5032197;28;20021;-70
2023/03/21 09:37:51;;;;;;;2.67;0.63;;;17.80;74.00;;;;;;5031947;28;20124;-70
2023/03/21 09:40:29;;;;;;;2.72;0.70;;;17.90;74.00;;;;;;5047710;28;20029;-70
2023/03/21 09:43:02;;;;;;;1.73;0.73;;;17.80;73.90;;;;;;5046700;28;20397;-70
2023/03/21 09:45:33;;;;;;;1.80;0.60;;;17.80;74.00;;;;;;5064027;28;20021;-70
2023/03/21 09:47:58;;;;;;;1.25;0.70;;;17.90;74.00;;;;;;5063701;28;20045;-70
2023/03/21 09:50:45;;;;;;;3.58;0.75;;;17.80;74.00;;;;;;5064071;28;20114;-70
2023/03/21 09:53:25;;;;;;;2.97;1.02;;;17.80;73.90;;;;;;5030953;28;20041;-70
2023/03/21 09:55:52;;;;;;;1.65;0.75;;;17.80;73.90;;;;;;5046283;28;20049;-70
2023/03/21 09:58:41;;;;;;;1.33;0.50;;;17.80;73.90;;;;;;5047260;28;20100;-70
2023/03/21 10:01:34;;;;;;;2.53;0.80;;;17.80;73.90;;;;;;5064032;28;20026;-70
2023/03/21 10:04:04;;;;;;;1.80;0.70;;;17.80;73.90;;;;;;5059998;28;20025;-70
2023/03/21 10:06:30;;;;;;;2.05;0.70;;;17.80;73.90;;;;;;5050345;28;20044;-70
2023/03/21 10:09:12;;;;;;;1.17;0.57;;;17.80;73.80;;;;;;5050702;28;20432;-70
2023/03/21 10:11:46;;;;;;;1.42;0.60;;;17.80;73.70;;;;;;5050424;28;20095;-70
2023/03/21 10:14:17;;;;;;;4.65;0.65;;;17.80;73.70;;;;;;5031021;28;20026;-70
2023/03/21 10:16:44;;;;;;;2.50;0.70;;;17.80;73.70;;;;;;5030600;28;20033;-70
2023/03/21 10:19:15;;;;;;;2.60;0.75;;;17.80;73.70;;;;;;5047357;28;20517;-70
2023/03/21 10:21:42;;;;;;;2.15;0.68;;;17.80;73.60;;;;;;5047561;28;20071;-70
2023/03/21 10:24:13;;;;;;;1.42;0.52;;;17.80;73.60;;;;;;5030652;28;20105;-70
2023/03/21 10:26:39;;;;;;;2.05;0.80;;;17.80;73.70;;;;;;5030530;28;20382;-70
2023/03/21 10:29:04;;;;;;;1.60;0.73;;;17.80;73.60;;;;;;5047291;28;20032;-70
2023/03/21 10:31:30;;;;;;;2.53;0.45;;;17.80;73.60;;;;;;5050706;28;20036;-70
2023/03/21 10:34:01;;;;;;;1.65;0.70;;;17.80;73.60;;;;;;5050816;28;20021;-70
2023/03/21 10:36:28;;;;;;;1.02;0.57;;;17.80;73.50;;;;;;5035114;28;20417;-70
2023/03/21 10:39:05;;;;;;;1.58;0.63;;;17.80;73.50;;;;;;5034413;28;20100;-70
2023/03/21 10:41:31;;;;;;;1.25;0.52;;;17.80;73.50;;;;;;5050710;28;20033;-70
2023/03/21 10:44:06;;;;;;;0.88;0.70;;;17.80;73.50;;;;;;5017513;28;20460;-70
2023/03/21 10:46:32;;;;;;;2.17;0.70;;;17.80;73.40;;;;;;5050917;28;20025;-70
2023/03/21 10:48:58;;;;;;;2.03;0.60;;;17.80;73.40;;;;;;5035030;28;20021;-70
2023/03/21 10:51:29;;;;;;;1.98;0.65;;;17.80;73.40;;;;;;5033644;28;20120;-70
2023/03/21 10:53:58;;;;;;;1.48;0.52;;;17.80;73.40;;;;;;5050788;28;20021;-70
2023/03/21 10:56:31;;;;;;;1.63;0.63;;;17.80;73.30;;;;;;5033976;28;20033;-70
2023/03/21 10:58:59;;;;;;;1.85;0.60;;;17.80;73.30;;;;;;5035024;28;20044;-70
2023/03/21 11:01:35;;;;;;;2.33;0.68;;;17.80;73.30;;;;;;5050378;28;20552;-70
2023/03/21 11:04:05;;;;;;;1.67;0.50;;;17.80;73.30;;;;;;5051844;28;20029;-70
2023/03/21 11:06:31;;;;;;;2.08;0.75;;;17.80;73.30;;;;;;5069536;28;20075;-70
2023/03/21 11:09:04;;;;;;;1.85;0.90;;;17.80;73.20;;;;;;5070365;28;20031;-70
2023/03/21 11:11:34;;;;;;;2.90;0.75;;;17.80;73.20;;;;;;5086167;28;20061;-70
2023/03/21 11:14:05;;;;;;;3.17;1.15;;;17.80;73.20;;;;;;5035418;28;20032;-70
2023/03/21 11:16:38;;;;;;;1.92;0.70;;;17.80;73.20;;;;;;5033231;28;20025;-70
2023/03/21 11:19:18;;;;;;;1.50;0.50;;;17.80;73.30;;;;;;5049314;28;20436;-70
2023/03/21 11:21:43;;;;;;;1.48;0.60;;;17.80;73.20;;;;;;5064848;28;20061;-70
2023/03/21 11:24:16;;;;;;;1.13;0.60;;;17.80;73.20;;;;;;5066686;28;20524;-68
2023/03/21 11:26:44;;;;;;;2.15;0.88;;;17.80;74.20;;;;;;5049726;28;20033;-68
2023/03/21 11:29:26;;;;;;;1.65;0.80;;;17.80;73.20;;;;;;5066672;28;20026;-68
2023/03/21 11:31:51;;;;;;;2.23;0.70;;;17.80;73.10;;;;;;5062352;28;20108;-68
2023/03/21 11:34:38;;;;;;;2.45;0.68;;;17.80;73.10;;;;;;5066218;28;20108;-68
2023/03/21 11:37:03;;;;;;;1.92;0.60;;;17.80;73.10;;;;;;5048910;28;20031;-68
2023/03/21 11:39:30;;;;;;;1.52;0.50;;;17.80;73.10;;;;;;5034326;28;20033;-68
2023/03/21 11:41:56;;;;;;;2.38;0.70;;;17.80;73.10;;;;;;5066025;28;20105;-68
2023/03/21 11:44:25;;;;;;;2.47;0.68;;;17.80;73.10;;;;;;5034291;28;20100;-68
2023/03/21 11:46:51;;;;;;;2.42;0.85;;;17.80;73.00;;;;;;5066002;28;20105;-68
2023/03/21 11:49:17;;;;;;;1.15;0.50;;;17.80;74.10;;;;;;5065958;28;20465;-68
2023/03/21 11:51:48;;;;;;;1.67;0.60;;;17.80;73.00;;;;;;5065620;28;20520;-68
2023/03/21 11:54:38;;;;;;;1.25;0.65;;;17.80;73.00;;;;;;5066281;28;20071;-68
2023/03/21 11:57:22;;;;;;;1.17;0.55;;;17.80;72.90;;;;;;5034006;28;20030;-68
2023/03/21 11:59:52;;;;;;;2.75;0.50;;;17.80;73.00;;;;;;5033582;28;20515;-68
2023/03/21 12:02:44;;;;;;;1.33;0.60;;;17.80;73.00;;;;;;5065813;28;20018;-68
2023/03/21 12:05:20;;;;;;;2.90;0.90;;;17.80;73.00;;;;;;5071443;28;20119;-68
2023/03/21 12:08:11;;;;;;;2.05;0.75;;;17.80;72.90;;;;;;5052506;28;20096;-68
2023/03/21 12:11:05;;;;;;;1.75;0.60;;;17.80;72.90;;;;;;5052343;28;20029;-68
2023/03/21 12:13:42;;;;;;;0.93;0.52;;;17.80;72.90;;;;;;5053208;28;20528;-68
2023/03/21 12:16:08;;;;;;;1.33;0.80;;;17.80;73.00;;;;;;5052611;28;20125;-68
2023/03/21 12:19:14;;;;;;;1.42;0.60;;;17.80;72.90;;;;;;5053161;28;20505;-68
2023/03/21 12:21:50;;;;;;;1.45;0.68;;;17.80;72.90;;;;;;5042057;28;20037;-68
2023/03/21 12:24:36;;;;;;;2.00;0.80;;;17.80;72.90;;;;;;5052155;28;20484;-68
2023/03/21 12:27:08;;;;;;;3.63;0.73;;;17.80;72.90;;;;;;5053188;28;20021;-68
2023/03/21 12:30:12;;;;;;;1.77;0.65;;;17.80;72.90;;;;;;5053274;28;20021;-68
2023/03/21 12:32:41;;;;;;;1.75;0.68;;;17.80;72.80;;;;;;5051791;28;20021;-68
2023/03/21 12:35:25;;;;;;;1.85;0.52;;;17.80;72.90;;;;;;5053111;28;20025;-68
2023/03/21 12:38:18;;;;;;;2.05;0.70;;;17.80;72.80;;;;;;5053020;28;20044;-68
2023/03/21 12:40:49;;;;;;;;;;;17.80;72.80;;;;;;5053559;28;20025;-68
2023/03/21 12:43:44;;;;;;;0.70;0.40;;;17.80;72.70;;;;;;5051557;28;20706;-68
2023/03/21 12:46:33;;;;;;;1.13;0.65;;;17.80;72.90;;;;;;5051632;28;20033;-68
2023/03/21 12:49:23;;;;;;;1.92;0.75;;;17.80;72.80;;;;;;5052567;28;20052;-68
2023/03/21 12:51:50;;;;;;;1.83;0.73;;;17.80;72.70;;;;;;5051347;28;20519;-68
2023/03/21 12:54:23;;;;;;;1.63;0.50;;;17.80;72.70;;;;;;5051233;28;20017;-68
2023/03/21 12:56:51;;;;;;;1.00;0.55;;;17.80;72.70;;;;;;5051673;28;20381;-68
2023/03/21 12:59:19;;;;;;;1.48;0.60;;;17.90;72.80;;;;;;5051412;28;20083;-68